Terminal Aerodrome Forecast
Issued by NWS

Home | Current Version | Previous Version | Text Only | Print | Product List | Glossary Off
Versions: 1 2 3 4 5 6 7 8 9 10 11 12 13 14 15 16 17 18 19

000
FTUS43 KICT 250834 AAA
TAFHUT
TAF AMD
KHUT 250834Z 2509/2606 VRB15G30KT 2SM TSRA BKN025CB
      TEMPO 2509/2510 P6SM -SHRA SCT025 OVC080
     FM251000 15007KT P6SM VCTS SCT025 OVC080CB
     FM251200 18013KT P6SM SCT006 BKN010
     FM251800 18015G22KT P6SM SCT035=

USA.gov is the U.S. government's official web portal to all federal, state and local government web resources and services.